ENCN/KRS METAR and TAF weather

Enter ICAO airport designator
Station Type Date Time Source
ENCN METAR 2019/06/18 12:50 UTC NOAA

ENCN 181250Z 19010KT 9999 SCT030 18/13 Q1013


Station Type Date Time Source
ENCN Decoded METAR 2019/06/18 12:50 UTC NOAA

Kristiansand / Kjevik, Norway (ENCN) 58-12N 008-05E 17M
Jun 18, 2019 - 08:50 AM EDT / 2019.06.18 1250 UTC
Wind: from the S (190 degrees) at 12 MPH (10 KT):0
Visibility: greater than 7 mile(s):0
Sky conditions: partly cloudy
Temperature: 64 F (18 C)
Dew Point: 55 F (13 C)
Relative Humidity: 72%
Pressure (altimeter): 29.91 in. Hg (1013 hPa)
ob: ENCN 181250Z 19010KT 9999 SCT030 18/13 Q1013
cycle: 13

Station Type Date Time Source
ENCN TAF 2016/05/06 12:39 UTC NOAA

TAF TAF ENCN 061100Z 0612/0712 14008KT 9999 FEW040

Example: see airport list